createdAt,value
2022-08-27T00:00:51.472Z,5.95
2022-08-27T00:01:52.972Z,5.65
2022-08-27T00:02:54.754Z,5.22
2022-08-27T00:03:56.461Z,5.82
2022-08-27T00:04:57.957Z,5.55
2022-08-27T00:05:59.472Z,5.57
2022-08-27T00:07:02.161Z,5.15
2022-08-27T00:08:04.482Z,6.03
2022-08-27T00:09:06.066Z,5.85
2022-08-27T00:10:09.783Z,6.10
2022-08-27T00:11:12.782Z,5.85
2022-08-27T00:12:14.387Z,5.82
2022-08-27T00:13:15.827Z,5.72
2022-08-27T00:14:17.335Z,6.13
2022-08-27T00:15:19.257Z,5.95
2022-08-27T00:16:22.453Z,5.38
2022-08-27T00:17:24.025Z,5.57
2022-08-27T00:18:25.544Z,5.80
2022-08-27T00:19:27.075Z,5.90
2022-08-27T00:20:28.616Z,6.35
2022-08-27T00:21:30.199Z,6.05
2022-08-27T00:22:31.820Z,6.18
2022-08-27T00:23:33.717Z,6.70
2022-08-27T00:24:35.546Z,6.13
2022-08-27T00:25:39.864Z,6.30
2022-08-27T00:26:43.291Z,6.43
2022-08-27T00:27:45.900Z,6.57
2022-08-27T00:28:47.786Z,6.50
2022-08-27T00:29:49.318Z,6.63
2022-08-27T00:30:50.795Z,6.50
2022-08-27T00:31:54.289Z,6.30
2022-08-27T00:32:55.858Z,6.75
2022-08-27T00:33:57.833Z,6.88
2022-08-27T00:34:59.290Z,6.85
2022-08-27T00:36:01.060Z,6.60
2022-08-27T00:37:02.573Z,6.60
2022-08-27T00:38:04.688Z,6.35
2022-08-27T00:39:06.194Z,7.07
2022-08-27T00:40:10.777Z,6.70
2022-08-27T00:41:13.428Z,7.18
2022-08-27T00:42:19.995Z,6.97
2022-08-27T00:43:22.746Z,6.82
2022-08-27T00:44:24.221Z,6.28
2022-08-27T00:45:25.727Z,7.03
2022-08-27T00:46:32.751Z,6.88
2022-08-27T00:47:40.991Z,6.55
2022-08-27T00:48:42.662Z,6.90
2022-08-27T00:49:48.750Z,6.60
2022-08-27T00:50:53.486Z,6.93
2022-08-27T00:51:57.917Z,6.50
2022-08-27T00:53:03.575Z,6.90
2022-08-27T00:54:06.334Z,6.75
2022-08-27T00:55:11.710Z,6.80
2022-08-27T00:56:20.438Z,6.97
2022-08-27T00:57:21.977Z,6.93
2022-08-27T00:58:27.785Z,7.22
2022-08-27T00:59:29.707Z,6.72
2022-08-27T01:00:31.279Z,6.53
2022-08-27T01:01:35.866Z,6.78
2022-08-27T01:02:38.940Z,6.55
2022-08-27T01:03:44.095Z,6.68
2022-08-27T01:04:50.141Z,7.05
2022-08-27T01:05:53.145Z,7.20
2022-08-27T01:06:55.469Z,7.25
2022-08-27T01:08:02.100Z,7.68
2022-08-27T01:09:13.811Z,6.93
2022-08-27T01:10:18.418Z,7.55
2022-08-27T01:11:20.760Z,7.00
2022-08-27T01:12:22.334Z,7.05
2022-08-27T01:13:58.901Z,7.57
2022-08-27T01:14:50.414Z,7.60
2022-08-27T01:15:52.731Z,6.70
2022-08-27T01:16:57.151Z,7.78
2022-08-27T01:18:03.538Z,7.63
2022-08-27T01:19:09.325Z,7.07
2022-08-27T01:20:15.422Z,7.47
2022-08-27T01:21:24.832Z,7.43
2022-08-27T01:22:36.067Z,8.43
2022-08-27T01:23:42.339Z,7.43
2022-08-27T01:24:47.734Z,6.55
2022-08-27T01:25:50.794Z,6.93
2022-08-27T01:26:52.724Z,7.28
2022-08-27T01:27:57.468Z,6.97
2022-08-27T01:28:59.232Z,8.15
2022-08-27T01:30:01.498Z,6.53
2022-08-27T01:31:04.492Z,7.75
2022-08-27T01:32:09.375Z,7.40
2022-08-27T01:33:13.006Z,7.20
2022-08-27T01:34:16.030Z,6.93
2022-08-27T01:35:18.959Z,6.80
2022-08-27T01:36:20.445Z,7.70
2022-08-27T01:37:24.081Z,7.13
2022-08-27T01:38:31.024Z,6.78
2022-08-27T01:39:33.359Z,7.25
2022-08-27T01:40:36.688Z,7.97
2022-08-27T01:41:38.924Z,7.47
2022-08-27T01:42:44.042Z,7.55
2022-08-27T01:43:45.547Z,6.88
2022-08-27T01:44:51.230Z,7.68
2022-08-27T01:45:52.675Z,7.15
2022-08-27T01:46:54.232Z,7.95
2022-08-27T01:47:56.037Z,7.32
2022-08-27T01:48:57.523Z,7.20
2022-08-27T01:49:59.684Z,7.47
2022-08-27T01:51:01.187Z,7.15
2022-08-27T01:52:04.199Z,7.72
2022-08-27T01:53:08.914Z,6.90
2022-08-27T01:54:10.401Z,7.25
2022-08-27T01:55:14.061Z,7.25
2022-08-27T01:56:16.882Z,7.30
2022-08-27T01:57:22.955Z,7.22
2022-08-27T01:58:29.886Z,7.20
2022-08-27T01:59:39.197Z,6.82
2022-08-27T02:00:44.360Z,6.78
2022-08-27T02:01:45.916Z,7.38
2022-08-27T02:02:48.067Z,6.20
2022-08-27T02:03:49.520Z,6.50
2022-08-27T02:04:51.010Z,7.18
2022-08-27T02:05:52.639Z,7.25
2022-08-27T02:06:54.111Z,7.18
2022-08-27T02:07:55.977Z,7.18
2022-08-27T02:08:57.441Z,6.88
2022-08-27T02:09:58.930Z,7.68
2022-08-27T02:11:02.147Z,8.68
2022-08-27T02:12:05.751Z,8.63
2022-08-27T02:13:07.832Z,8.98
2022-08-27T02:14:12.977Z,9.65
2022-08-27T02:15:15.841Z,9.30
2022-08-27T02:16:17.366Z,10.27
2022-08-27T02:17:18.919Z,9.55
2022-08-27T02:18:20.575Z,9.32
2022-08-27T02:19:22.871Z,9.20
2022-08-27T02:20:29.177Z,9.73
2022-08-27T02:21:31.039Z,9.43
2022-08-27T02:22:32.607Z,9.80
2022-08-27T02:23:34.110Z,9.85
2022-08-27T02:24:35.578Z,9.70
2022-08-27T02:25:37.733Z,9.90
2022-08-27T02:26:39.295Z,9.43
2022-08-27T02:27:43.472Z,10.32
2022-08-27T02:28:44.963Z,10.25
2022-08-27T02:29:46.676Z,10.35
2022-08-27T02:30:51.229Z,9.57
2022-08-27T02:31:52.743Z,10.05
2022-08-27T02:32:54.254Z,9.27
2022-08-27T02:33:55.786Z,10.55
2022-08-27T02:34:57.308Z,10.63
2022-08-27T02:35:59.225Z,9.75
2022-08-27T02:37:00.849Z,7.47
2022-08-27T02:38:02.336Z,10.50
2022-08-27T02:39:04.854Z,10.07
2022-08-27T02:40:08.144Z,10.25
2022-08-27T02:41:10.024Z,10.30
2022-08-27T02:42:11.682Z,12.43
2022-08-27T02:43:15.945Z,13.50
2022-08-27T02:44:17.730Z,10.82
2022-08-27T02:45:20.122Z,11.13
2022-08-27T02:46:21.588Z,9.85
2022-08-27T02:47:23.112Z,15.82
2022-08-27T02:48:24.849Z,13.93
2022-08-27T02:49:26.306Z,11.70
2022-08-27T02:50:27.886Z,15.25
2022-08-27T02:51:29.340Z,14.18
2022-08-27T02:52:30.798Z,15.32
2022-08-27T02:53:33.325Z,18.42
2022-08-27T02:54:34.925Z,17.38
2022-08-27T02:55:37.143Z,17.00
2022-08-27T02:56:38.641Z,14.88
2022-08-27T02:57:40.326Z,17.38
2022-08-27T02:58:43.164Z,18.17
2022-08-27T02:59:44.658Z,18.20
2022-08-27T03:00:46.233Z,18.58
2022-08-27T03:01:48.604Z,16.73
2022-08-27T03:02:50.470Z,18.30
2022-08-27T03:03:52.033Z,19.23
2022-08-27T03:04:53.493Z,19.85
2022-08-27T03:05:55.256Z,20.35
2022-08-27T03:06:56.771Z,23.05
2022-08-27T03:07:58.256Z,21.13
2022-08-27T03:08:59.758Z,22.50
2022-08-27T03:10:01.288Z,22.73
2022-08-27T03:11:03.434Z,22.08
2022-08-27T03:12:05.706Z,22.58
2022-08-27T03:13:07.266Z,21.77
2022-08-27T03:14:10.092Z,20.95
2022-08-27T03:15:16.443Z,24.35
2022-08-27T03:16:18.769Z,21.02
2022-08-27T03:17:20.341Z,21.85
2022-08-27T03:18:21.920Z,23.77
2022-08-27T03:19:24.156Z,21.92
2022-08-27T03:20:26.621Z,23.75
2022-08-27T03:21:28.237Z,24.48
2022-08-27T03:22:29.825Z,26.33
2022-08-27T03:23:32.546Z,25.42
2022-08-27T03:24:34.875Z,25.80
2022-08-27T03:25:37.594Z,23.38
2022-08-27T03:26:39.552Z,24.95
2022-08-27T03:27:41.582Z,24.45
2022-08-27T03:28:43.591Z,23.77
2022-08-27T03:29:46.418Z,24.17
2022-08-27T03:30:49.636Z,24.27
2022-08-27T03:31:51.113Z,24.27
2022-08-27T03:32:52.907Z,23.90
2022-08-27T03:33:56.325Z,26.98
2022-08-27T03:34:58.011Z,26.40
2022-08-27T03:36:00.201Z,27.67
2022-08-27T03:37:01.695Z,28.20
2022-08-27T03:38:03.688Z,27.05
2022-08-27T03:39:05.195Z,24.88
2022-08-27T03:40:08.179Z,23.70
2022-08-27T03:41:09.780Z,25.25
2022-08-27T03:42:11.238Z,22.73
2022-08-27T03:43:14.283Z,17.73
2022-08-27T03:44:21.583Z,15.90
2022-08-27T03:45:24.885Z,16.48
2022-08-27T03:46:26.386Z,16.48
2022-08-27T03:47:27.988Z,15.45
2022-08-27T03:48:30.852Z,16.35
2022-08-27T03:49:32.372Z,17.08
2022-08-27T03:50:34.477Z,17.30
2022-08-27T03:51:36.939Z,18.48
2022-08-27T03:52:38.495Z,16.25
2022-08-27T03:53:41.986Z,16.80
2022-08-27T03:54:43.468Z,18.33
2022-08-27T03:55:44.941Z,18.00
2022-08-27T03:56:46.407Z,17.65
2022-08-27T03:57:47.893Z,16.95
2022-08-27T03:58:49.365Z,18.40
2022-08-27T03:59:52.268Z,19.00
2022-08-27T04:00:57.413Z,18.67
2022-08-27T04:01:59.333Z,18.77
2022-08-27T04:03:00.925Z,20.15
2022-08-27T04:04:03.125Z,23.48
2022-08-27T04:05:05.413Z,23.70
2022-08-27T04:06:07.419Z,23.35
2022-08-27T04:07:08.914Z,21.85
2022-08-27T04:08:10.817Z,21.38
2022-08-27T04:09:12.494Z,21.15
2022-08-27T04:10:16.339Z,19.73
2022-08-27T04:11:17.839Z,23.00
2022-08-27T04:12:19.361Z,23.33
2022-08-27T04:13:21.797Z,21.30
2022-08-27T04:14:26.523Z,21.40
2022-08-27T04:15:28.653Z,20.10
2022-08-27T04:16:31.773Z,18.42
2022-08-27T04:17:33.671Z,18.70
2022-08-27T04:18:35.219Z,17.25
2022-08-27T04:19:36.753Z,17.77
2022-08-27T04:20:38.337Z,18.63
2022-08-27T04:21:39.835Z,18.52
2022-08-27T04:22:41.283Z,19.67
2022-08-27T04:23:43.236Z,20.67
2022-08-27T04:24:44.737Z,21.63
2022-08-27T04:25:46.318Z,21.05
2022-08-27T04:26:47.817Z,23.25
2022-08-27T04:27:49.268Z,23.10
2022-08-27T04:28:50.857Z,22.17
2022-08-27T04:29:54.885Z,22.05
2022-08-27T04:30:56.441Z,22.20
2022-08-27T04:31:59.465Z,23.95
2022-08-27T04:33:00.952Z,22.70
2022-08-27T04:34:02.625Z,23.00
2022-08-27T04:35:04.745Z,21.83
2022-08-27T04:36:08.988Z,21.60
2022-08-27T04:37:10.474Z,20.33
2022-08-27T04:38:12.409Z,19.52
2022-08-27T04:39:14.615Z,21.02
2022-08-27T04:40:16.778Z,20.60
2022-08-27T04:41:18.314Z,20.83
2022-08-27T04:42:20.534Z,20.38
2022-08-27T04:43:22.129Z,22.15
2022-08-27T04:44:24.705Z,22.98
2022-08-27T04:45:26.183Z,24.50
2022-08-27T04:46:29.960Z,24.45
2022-08-27T04:47:32.968Z,26.13
2022-08-27T04:48:34.817Z,26.30
2022-08-27T04:49:40.505Z,23.77
2022-08-27T04:50:43.743Z,26.58
2022-08-27T04:51:46.287Z,26.73
2022-08-27T04:52:47.923Z,27.00
2022-08-27T04:53:51.645Z,28.35
2022-08-27T04:54:53.090Z,29.38
2022-08-27T04:55:56.832Z,28.83
2022-08-27T04:56:58.315Z,28.67
2022-08-27T04:57:59.794Z,27.15
2022-08-27T04:59:01.617Z,28.48
2022-08-27T05:00:03.889Z,28.38
2022-08-27T05:01:05.401Z,29.17
2022-08-27T05:02:08.131Z,27.30
2022-08-27T05:03:10.990Z,28.25
2022-08-27T05:04:14.509Z,28.50
2022-08-27T05:05:16.316Z,28.77
2022-08-27T05:06:18.856Z,24.75
2022-08-27T05:07:20.378Z,28.73
2022-08-27T05:08:21.840Z,28.98
2022-08-27T05:09:24.530Z,29.95
2022-08-27T05:10:28.412Z,31.50
2022-08-27T05:11:30.041Z,35.72
2022-08-27T05:12:31.516Z,33.90
2022-08-27T05:13:33.623Z,31.70
2022-08-27T05:14:35.106Z,31.95
2022-08-27T05:15:37.151Z,33.03
2022-08-27T05:16:39.079Z,34.78
2022-08-27T05:17:40.541Z,35.17
2022-08-27T05:18:47.853Z,36.15
2022-08-27T05:19:50.037Z,35.58
2022-08-27T05:20:51.570Z,30.02
2022-08-27T05:21:53.646Z,33.38
2022-08-27T05:22:55.292Z,30.08
2022-08-27T05:23:58.619Z,32.85
2022-08-27T05:25:00.121Z,33.33
2022-08-27T05:26:01.753Z,30.90
2022-08-27T05:27:03.462Z,36.17
2022-08-27T05:28:04.999Z,37.60
2022-08-27T05:29:06.539Z,36.88
2022-08-27T05:30:08.831Z,36.30
2022-08-27T05:31:12.556Z,36.10
2022-08-27T05:32:14.048Z,30.40
2022-08-27T05:33:17.409Z,30.85
2022-08-27T05:34:24.576Z,32.17
2022-08-27T05:35:28.597Z,34.65
2022-08-27T05:36:32.580Z,31.17
2022-08-27T05:37:34.023Z,33.05
2022-08-27T05:38:35.569Z,31.58
2022-08-27T05:39:37.065Z,31.35
2022-08-27T05:40:39.517Z,31.60
2022-08-27T05:41:41.017Z,33.85
2022-08-27T05:42:42.498Z,34.25
2022-08-27T05:43:50.458Z,33.10
2022-08-27T05:44:52.445Z,33.38
2022-08-27T05:45:53.916Z,32.65
2022-08-27T05:46:55.403Z,38.55
2022-08-27T05:47:57.237Z,37.22
2022-08-27T05:49:00.390Z,37.72
2022-08-27T05:50:03.522Z,40.50
2022-08-27T05:51:12.125Z,38.80
2022-08-27T05:52:13.598Z,41.50
2022-08-27T05:53:15.098Z,42.30
2022-08-27T05:54:17.282Z,43.45
2022-08-27T05:55:18.818Z,43.40
2022-08-27T05:56:22.493Z,42.17
2022-08-27T05:57:23.957Z,41.58
2022-08-27T05:58:25.437Z,41.35
2022-08-27T05:59:26.924Z,41.97
2022-08-27T06:00:28.554Z,42.55
2022-08-27T06:01:31.340Z,39.45
2022-08-27T06:02:32.838Z,41.90
2022-08-27T06:03:36.383Z,40.15
2022-08-27T06:04:37.921Z,41.45
2022-08-27T06:05:40.750Z,40.83
2022-08-27T06:06:44.206Z,42.83
2022-08-27T06:07:45.793Z,43.58
2022-08-27T06:08:47.302Z,41.88
2022-08-27T06:09:48.833Z,42.65
2022-08-27T06:10:50.301Z,43.28
2022-08-27T06:11:53.233Z,44.05
2022-08-27T06:12:57.045Z,42.72
2022-08-27T06:13:58.747Z,43.17
2022-08-27T06:15:00.349Z,42.63
2022-08-27T06:16:02.567Z,43.30
2022-08-27T06:17:04.584Z,41.88
2022-08-27T06:18:06.055Z,42.38
2022-08-27T06:19:09.011Z,40.85
2022-08-27T06:20:10.521Z,42.60
2022-08-27T06:21:14.541Z,40.85
2022-08-27T06:22:16.047Z,40.58
2022-08-27T06:23:17.558Z,41.35
2022-08-27T06:24:29.653Z,43.33
2022-08-27T06:25:31.435Z,39.67
2022-08-27T06:26:33.033Z,41.83
2022-08-27T06:27:34.504Z,39.22
2022-08-27T06:28:36.528Z,39.53
2022-08-27T06:29:38.224Z,38.13
2022-08-27T06:30:39.726Z,37.15
2022-08-27T06:31:41.500Z,39.53
2022-08-27T06:32:42.999Z,28.05
2022-08-27T06:33:45.894Z,35.55
2022-08-27T06:34:47.380Z,20.67
2022-08-27T06:35:48.851Z,31.35
2022-08-27T06:36:51.687Z,35.45
2022-08-27T06:37:53.179Z,34.85
2022-08-27T06:38:55.170Z,32.95
2022-08-27T06:39:56.688Z,31.95
2022-08-27T06:40:58.351Z,33.42
2022-08-27T06:41:59.835Z,32.03
2022-08-27T06:43:01.402Z,30.17
2022-08-27T06:44:03.108Z,18.35
2022-08-27T06:45:05.350Z,26.38
2022-08-27T06:46:09.329Z,27.38
2022-08-27T06:47:11.068Z,32.85
2022-08-27T06:48:12.717Z,33.58
2022-08-27T06:49:14.287Z,30.88
2022-08-27T06:50:19.722Z,32.38
2022-08-27T06:51:25.419Z,32.00
2022-08-27T06:52:28.254Z,33.78
2022-08-27T06:53:29.746Z,30.08
2022-08-27T06:54:31.211Z,31.33
2022-08-27T06:55:40.251Z,32.45
2022-08-27T06:56:42.946Z,29.95
2022-08-27T06:57:44.417Z,29.77
2022-08-27T06:58:46.033Z,31.15
2022-08-27T06:59:47.496Z,29.48
2022-08-27T07:00:49.208Z,28.73
2022-08-27T07:01:50.773Z,29.27
2022-08-27T07:02:52.275Z,28.92
2022-08-27T07:03:55.031Z,28.92
2022-08-27T07:04:58.697Z,27.50
2022-08-27T07:06:04.459Z,30.10
2022-08-27T07:07:05.930Z,27.65
2022-08-27T07:08:09.895Z,22.38
2022-08-27T07:09:11.752Z,26.95
2022-08-27T07:10:13.205Z,12.32
2022-08-27T07:11:15.392Z,26.15
2022-08-27T07:12:16.909Z,25.33
2022-08-27T07:13:18.384Z,29.42
2022-08-27T07:14:19.914Z,29.08
2022-08-27T07:15:21.821Z,29.10
2022-08-27T07:16:27.484Z,29.35
2022-08-27T07:17:29.190Z,29.23
2022-08-27T07:18:30.717Z,29.08
2022-08-27T07:19:32.957Z,23.38
2022-08-27T07:20:34.456Z,29.50
2022-08-27T07:21:38.587Z,28.35
2022-08-27T07:22:40.266Z,28.52
2022-08-27T07:23:43.067Z,26.38
2022-08-27T07:24:44.546Z,20.27
2022-08-27T07:25:46.077Z,24.83
2022-08-27T07:26:47.551Z,25.70
2022-08-27T07:27:49.831Z,25.38
2022-08-27T07:28:52.099Z,30.63
2022-08-27T07:29:53.860Z,30.80
2022-08-27T07:30:55.403Z,26.05
2022-08-27T07:31:56.940Z,29.48
2022-08-27T07:32:58.413Z,30.63
2022-08-27T07:34:00.005Z,29.08
2022-08-27T07:35:01.474Z,29.13
2022-08-27T07:36:04.865Z,29.10
2022-08-27T07:37:06.329Z,25.95
2022-08-27T07:38:10.377Z,23.15
2022-08-27T07:39:13.281Z,29.25
2022-08-27T07:40:15.781Z,23.00
2022-08-27T07:41:18.021Z,24.13
2022-08-27T07:42:19.523Z,29.08
2022-08-27T07:43:21.106Z,27.73
2022-08-27T07:44:25.980Z,22.85
2022-08-27T07:45:28.060Z,22.95
2022-08-27T07:46:29.571Z,17.17
2022-08-27T07:47:31.824Z,17.65
2022-08-27T07:48:33.339Z,30.40
2022-08-27T07:49:37.952Z,18.13
2022-08-27T07:50:39.625Z,25.85
2022-08-27T07:51:41.103Z,27.45
2022-08-27T07:52:42.621Z,19.75
2022-08-27T07:53:44.637Z,22.50
2022-08-27T07:54:47.480Z,18.15
2022-08-27T07:55:48.944Z,26.98
2022-08-27T07:56:55.071Z,22.00
2022-08-27T07:57:57.422Z,22.52
2022-08-27T07:58:58.889Z,28.88
2022-08-27T08:00:00.480Z,24.10
2022-08-27T08:01:02.437Z,30.33
2022-08-27T08:02:04.342Z,27.00
2022-08-27T08:03:05.859Z,27.52
2022-08-27T08:04:07.755Z,22.45
2022-08-27T08:05:11.590Z,29.65
2022-08-27T08:06:15.220Z,25.38
2022-08-27T08:07:16.694Z,25.35
2022-08-27T08:08:18.533Z,26.40
2022-08-27T08:09:20.445Z,25.60
2022-08-27T08:10:23.295Z,23.83
2022-08-27T08:11:24.753Z,22.80
2022-08-27T08:12:26.786Z,23.65
2022-08-27T08:13:28.397Z,25.52
2022-08-27T08:14:30.027Z,17.85
2022-08-27T08:15:31.531Z,15.15
2022-08-27T08:16:33.083Z,26.17
2022-08-27T08:17:35.335Z,15.00
2022-08-27T08:18:37.408Z,22.30
2022-08-27T08:19:38.890Z,19.90
2022-08-27T08:20:57.185Z,24.98
2022-08-27T08:22:03.665Z,28.45
2022-08-27T08:23:09.693Z,18.40
2022-08-27T08:24:11.401Z,22.63
2022-08-27T08:25:13.021Z,20.48
2022-08-27T08:26:16.133Z,22.20
2022-08-27T08:27:17.636Z,22.05
2022-08-27T08:28:19.104Z,22.27
2022-08-27T08:29:20.562Z,20.45
2022-08-27T08:30:22.819Z,25.52
2022-08-27T08:31:24.434Z,23.10
2022-08-27T08:32:26.137Z,17.50
2022-08-27T08:33:27.853Z,23.92
2022-08-27T08:34:29.341Z,24.27
2022-08-27T08:35:34.994Z,18.88
2022-08-27T08:36:42.753Z,26.33
2022-08-27T08:37:47.759Z,24.17
2022-08-27T08:38:49.233Z,17.50
2022-08-27T08:39:50.771Z,26.50
2022-08-27T08:40:52.513Z,28.17
2022-08-27T08:41:58.326Z,26.17
2022-08-27T08:43:01.544Z,25.85
2022-08-27T08:44:10.074Z,24.40
2022-08-27T08:45:17.411Z,23.10
2022-08-27T08:46:27.237Z,22.23
2022-08-27T08:47:31.332Z,24.52
2022-08-27T08:48:34.471Z,24.23
2022-08-27T08:49:46.623Z,26.58
2022-08-27T08:50:54.054Z,23.98
2022-08-27T08:52:08.324Z,21.73
2022-08-27T08:53:16.913Z,23.33
2022-08-27T08:54:21.625Z,22.25
2022-08-27T08:55:38.341Z,26.23
2022-08-27T08:56:52.967Z,23.27
2022-08-27T08:58:09.541Z,21.45
2022-08-27T08:59:18.283Z,25.35
2022-08-27T09:00:19.813Z,27.42
2022-08-27T09:01:22.067Z,24.90
2022-08-27T09:02:23.611Z,23.15
2022-08-27T09:03:29.593Z,21.13
2022-08-27T09:04:31.097Z,20.52
2022-08-27T09:05:32.607Z,24.65
2022-08-27T09:06:40.837Z,25.45
2022-08-27T09:07:49.462Z,24.63
2022-08-27T09:08:51.115Z,27.67
2022-08-27T09:09:58.807Z,26.10
2022-08-27T09:11:07.163Z,26.08
2022-08-27T09:12:13.609Z,24.75
2022-08-27T09:13:22.612Z,23.58
2022-08-27T09:14:37.278Z,24.20
2022-08-27T09:15:39.173Z,22.75
2022-08-27T09:16:40.729Z,22.92
2022-08-27T09:17:42.274Z,24.58
2022-08-27T09:18:43.806Z,25.02
2022-08-27T09:19:46.916Z,21.13
2022-08-27T09:20:54.564Z,24.17
2022-08-27T09:22:03.976Z,22.05
2022-08-27T09:23:13.902Z,26.38
2022-08-27T09:24:22.144Z,25.30
2022-08-27T09:25:27.524Z,25.30
2022-08-27T09:26:31.651Z,26.88
2022-08-27T09:27:35.579Z,24.60
2022-08-27T09:28:41.017Z,25.73
2022-08-27T09:29:48.338Z,27.20
2022-08-27T09:30:49.882Z,27.35
2022-08-27T09:31:57.182Z,25.08
2022-08-27T09:33:02.326Z,25.15
2022-08-27T09:34:04.689Z,26.58
2022-08-27T09:35:08.649Z,23.23
2022-08-27T09:36:13.410Z,24.05
2022-08-27T09:37:19.632Z,24.40
2022-08-27T09:38:27.145Z,24.63
2022-08-27T09:39:33.626Z,27.00
2022-08-27T09:40:42.166Z,22.98
2022-08-27T09:41:46.565Z,14.50
2022-08-27T09:42:50.959Z,20.75
2022-08-27T09:44:01.247Z,22.17
2022-08-27T09:45:07.315Z,23.38
2022-08-27T09:46:20.015Z,23.73
2022-08-27T09:47:24.266Z,18.90
2022-08-27T09:48:28.345Z,13.05
2022-08-27T09:49:31.287Z,27.80
2022-08-27T09:50:42.974Z,16.55
2022-08-27T09:51:47.780Z,25.35
2022-08-27T09:52:53.208Z,16.95
2022-08-27T09:53:56.979Z,25.85
2022-08-27T09:54:58.763Z,17.52
2022-08-27T09:56:02.753Z,24.70
2022-08-27T09:57:06.525Z,27.52
2022-08-27T09:58:15.853Z,19.25
2022-08-27T09:59:23.276Z,20.52
2022-08-27T10:00:35.019Z,23.65
2022-08-27T10:01:48.746Z,25.77
2022-08-27T10:02:52.541Z,18.17
2022-08-27T10:04:04.891Z,19.60
2022-08-27T10:05:22.558Z,21.58
2022-08-27T10:06:28.902Z,16.73
2022-08-27T10:07:39.264Z,13.93
2022-08-27T10:08:43.232Z,16.08
2022-08-27T10:09:50.801Z,13.82
2022-08-27T10:10:55.994Z,21.73
2022-08-27T10:12:03.335Z,21.13
2022-08-27T10:13:10.088Z,15.57
2022-08-27T10:14:16.202Z,19.85
2022-08-27T10:15:19.278Z,14.50
2022-08-27T10:16:36.288Z,25.55
2022-08-27T10:17:47.083Z,23.27
2022-08-27T10:18:57.162Z,15.30
2022-08-27T10:20:07.239Z,16.52
2022-08-27T10:21:15.643Z,24.77
2022-08-27T10:22:40.313Z,27.48
2022-08-27T10:23:49.860Z,21.60
2022-08-27T10:25:04.407Z,26.55
2022-08-27T10:26:12.601Z,25.83
2022-08-27T10:27:22.904Z,27.50
2022-08-27T10:28:36.962Z,23.55
2022-08-27T10:29:47.276Z,19.17
2022-08-27T10:31:08.915Z,15.70
2022-08-27T10:33:26.962Z,16.98
2022-08-27T10:35:46.855Z,12.50
2022-08-27T10:37:08.507Z,17.50
2022-08-27T10:38:14.771Z,17.38
2022-08-27T10:39:33.429Z,19.50
2022-08-27T10:40:42.522Z,13.25
2022-08-27T10:41:49.589Z,13.27
2022-08-27T10:43:00.602Z,17.88
2022-08-27T10:44:26.857Z,16.05
2022-08-27T10:45:39.563Z,16.58
2022-08-27T10:46:53.518Z,20.48
2022-08-27T10:48:08.416Z,22.27
2022-08-27T10:49:20.941Z,19.10
2022-08-27T10:50:30.271Z,20.50
2022-08-27T10:51:38.874Z,17.90
2022-08-27T10:52:46.504Z,12.27
2022-08-27T10:54:03.865Z,16.27
2022-08-27T10:55:12.483Z,13.13
2022-08-27T10:56:20.605Z,15.60
2022-08-27T10:57:53.927Z,20.58
2022-08-27T10:59:16.223Z,17.05
2022-08-27T11:00:20.002Z,13.68
2022-08-27T11:01:31.572Z,11.15
2022-08-27T11:02:41.326Z,15.85
2022-08-27T11:03:47.560Z,18.05
2022-08-27T11:04:54.575Z,14.13
2022-08-27T11:05:59.483Z,19.88
2022-08-27T11:07:04.687Z,17.58
2022-08-27T11:08:13.707Z,15.95
2022-08-27T11:09:19.442Z,20.00
2022-08-27T11:10:26.655Z,21.13
2022-08-27T11:13:06.617Z,12.15
2022-08-27T11:14:19.589Z,15.18
2022-08-27T11:15:25.038Z,19.20
2022-08-27T11:16:34.318Z,19.75
2022-08-27T11:17:41.921Z,20.38
2022-08-27T11:18:50.440Z,17.08
2022-08-27T11:19:56.817Z,19.75
2022-08-27T11:21:02.573Z,17.75
2022-08-27T11:22:12.188Z,18.73
2022-08-27T11:23:23.087Z,17.55
2022-08-27T11:24:34.938Z,21.63
2022-08-27T11:25:48.131Z,18.92
2022-08-27T11:26:51.957Z,17.50
2022-08-27T11:27:56.747Z,17.60
2022-08-27T11:29:01.715Z,17.80
2022-08-27T11:30:06.340Z,20.33
2022-08-27T11:31:14.178Z,20.20
2022-08-27T11:32:22.337Z,17.73
2022-08-27T11:33:30.199Z,18.52
2022-08-27T11:34:39.916Z,18.33
2022-08-27T11:35:51.182Z,18.67
2022-08-27T11:37:09.404Z,19.13
2022-08-27T11:38:29.846Z,18.65
2022-08-27T11:39:51.727Z,18.52
2022-08-27T11:41:10.292Z,18.20
2022-08-27T11:42:20.953Z,17.20
2022-08-27T11:43:26.776Z,16.70
2022-08-27T11:44:28.941Z,14.82
2022-08-27T11:45:33.272Z,15.73
2022-08-27T11:46:43.086Z,15.52
2022-08-27T11:47:52.961Z,17.10
2022-08-27T11:49:01.610Z,15.50
2022-08-27T11:50:07.294Z,14.63
2022-08-27T11:51:12.389Z,13.65
2022-08-27T11:52:24.871Z,8.93
2022-08-27T11:53:29.790Z,5.90
2022-08-27T11:54:42.958Z,7.20
2022-08-27T11:55:44.451Z,7.20
2022-08-27T11:56:45.934Z,5.93
2022-08-27T11:57:49.971Z,5.88
2022-08-27T11:58:53.197Z,4.75
2022-08-27T11:59:55.709Z,5.90
2022-08-27T12:00:59.897Z,5.72
2022-08-27T12:02:20.759Z,5.20
2022-08-27T12:03:28.323Z,5.25
2022-08-27T12:04:36.888Z,4.60
2022-08-27T12:05:43.802Z,3.95
2022-08-27T12:06:51.234Z,4.47
2022-08-27T12:07:53.114Z,3.50
2022-08-27T12:09:06.631Z,3.55
2022-08-27T12:10:27.260Z,4.10
2022-08-27T12:11:41.400Z,4.20
2022-08-27T12:12:56.288Z,3.00
2022-08-27T12:14:14.212Z,4.45
2022-08-27T12:15:21.675Z,3.90
2022-08-27T12:16:40.108Z,3.88
2022-08-27T12:17:48.474Z,2.35
2022-08-27T12:19:02.021Z,3.15
2022-08-27T12:20:18.680Z,4.05
2022-08-27T12:21:31.943Z,3.97
2022-08-27T12:23:12.701Z,2.95
2022-08-27T12:24:29.678Z,3.83
2022-08-27T12:25:31.179Z,3.33
2022-08-27T12:26:35.265Z,4.55
2022-08-27T12:27:37.718Z,3.47
2022-08-27T12:28:39.189Z,3.60
2022-08-27T12:29:46.268Z,3.10
2022-08-27T12:30:49.672Z,4.40
2022-08-27T12:31:55.272Z,4.28
2022-08-27T12:32:59.429Z,2.95
2022-08-27T12:34:01.078Z,4.63
2022-08-27T12:35:08.490Z,5.10
2022-08-27T12:36:19.993Z,4.85
2022-08-27T12:37:35.061Z,4.45
2022-08-27T12:38:43.886Z,5.63
2022-08-27T12:39:55.368Z,4.03
2022-08-27T12:40:57.260Z,3.63
2022-08-27T12:41:58.744Z,5.25
2022-08-27T12:43:08.661Z,5.50
2022-08-27T12:44:13.253Z,3.33
2022-08-27T12:45:21.043Z,2.65
2022-08-27T12:46:22.538Z,4.60
2022-08-27T12:47:24.415Z,4.68
2022-08-27T12:48:29.416Z,4.60
2022-08-27T12:49:38.073Z,4.47
2022-08-27T12:50:41.078Z,5.00
2022-08-27T12:51:44.744Z,4.78
2022-08-27T12:53:10.243Z,5.07
2022-08-27T12:54:29.403Z,4.35
2022-08-27T12:55:44.725Z,4.95
2022-08-27T12:56:59.276Z,5.18
2022-08-27T12:58:15.306Z,5.22
2022-08-27T12:59:36.527Z,4.53
2022-08-27T13:00:56.467Z,5.60
2022-08-27T13:02:08.545Z,5.53
2022-08-27T13:03:24.151Z,5.57
2022-08-27T13:04:27.773Z,5.40
2022-08-27T13:05:37.677Z,5.65
2022-08-27T13:06:45.625Z,5.65
2022-08-27T13:07:48.567Z,5.03
2022-08-27T13:08:54.578Z,6.43
2022-08-27T13:09:57.502Z,5.40
2022-08-27T13:11:08.444Z,5.82
2022-08-27T13:12:17.620Z,5.80
2022-08-27T13:13:21.094Z,6.30
2022-08-27T13:14:24.468Z,6.25
2022-08-27T13:15:26.011Z,6.15
2022-08-27T13:16:27.593Z,6.90
2022-08-27T13:17:36.287Z,7.28
2022-08-27T13:18:38.269Z,6.85
2022-08-27T13:19:45.497Z,7.45
2022-08-27T13:20:53.311Z,7.25
2022-08-27T13:21:56.740Z,7.07
2022-08-27T13:22:58.497Z,7.40
2022-08-27T13:24:02.892Z,7.03
2022-08-27T13:25:06.304Z,8.02
2022-08-27T13:26:11.041Z,6.35
2022-08-27T13:27:13.044Z,5.65
2022-08-27T13:28:17.347Z,6.75
2022-08-27T13:29:19.281Z,6.90
2022-08-27T13:30:22.952Z,6.20
2022-08-27T13:31:38.171Z,6.30
2022-08-27T13:32:40.523Z,6.57
2022-08-27T13:33:42.508Z,7.05
2022-08-27T13:34:44.166Z,5.95
2022-08-27T13:35:45.873Z,6.38
2022-08-27T13:36:57.322Z,7.22
2022-08-27T13:37:59.834Z,6.40
2022-08-27T13:39:04.057Z,6.28
2022-08-27T13:40:06.639Z,7.68
2022-08-27T13:41:11.541Z,7.38
2022-08-27T13:42:13.244Z,7.32
2022-08-27T13:43:15.201Z,6.90
2022-08-27T13:44:21.062Z,6.65
2022-08-27T13:45:22.741Z,6.45
2022-08-27T13:46:27.736Z,6.10
2022-08-27T13:47:30.471Z,7.10
2022-08-27T13:48:32.817Z,7.88
2022-08-27T13:49:39.683Z,7.57
2022-08-27T13:50:49.309Z,7.57
2022-08-27T13:52:01.314Z,7.55
2022-08-27T13:53:06.729Z,7.70
2022-08-27T13:54:13.839Z,7.82
2022-08-27T13:55:17.154Z,8.85
2022-08-27T13:56:27.365Z,8.32
2022-08-27T13:57:31.393Z,7.93
2022-08-27T13:58:35.037Z,8.18
2022-08-27T13:59:42.176Z,8.35
2022-08-27T14:00:44.837Z,8.05
2022-08-27T14:01:55.986Z,7.40
2022-08-27T14:02:59.022Z,8.05
2022-08-27T14:04:02.745Z,8.82
2022-08-27T14:05:09.780Z,8.50
2022-08-27T14:06:21.691Z,7.88